Time;durP1;ratioP1;P1;durP2;ratioP2;P2;SDS_P1;SDS_P2;PMS_P1;PMS_P2;Temp;Humidity;BMP_temperature;BMP_pressure;BME280_temperature;BME280_humidity;BME280_pressure;Samples;Min_cycle;Max_cycle;Signal;HPM_P1;HPM_P2
2021/01/09 00:00:33;;;;;;;131.77;41.08;;;;;;;;;;8260460;28;20356;-73
2021/01/09 00:04:40;;;;;;;132.88;41.60;;;;;;;;;;8261136;28;20387;-74
2021/01/09 00:08:43;;;;;;;140.73;44.95;;;;;;;;;;8260143;28;20509;-73
2021/01/09 00:12:48;;;;;;;91.85;35.15;;;;;;;;;;8259516;28;20468;-74
2021/01/09 00:16:52;;;;;;;127.60;37.08;;;;;;;;;;8258654;28;20360;-73
2021/01/09 00:20:55;;;;;;;124.57;38.63;;;;;;;;;;8274868;28;20487;-72
2021/01/09 00:24:58;;;;;;;111.40;33.80;;;;;;;;;;8260349;28;20491;-73
2021/01/09 00:29:04;;;;;;;179.65;46.78;;;;;;;;;;8259344;28;20368;-74
2021/01/09 00:33:07;;;;;;;106.22;35.08;;;;;;;;;;8260547;28;20379;-73
2021/01/09 00:37:10;;;;;;;158.80;43.63;;;;;;;;;;8274935;28;20383;-73
2021/01/09 00:41:14;;;;;;;119.38;37.55;;;;;;;;;;8259773;28;20475;-73
2021/01/09 00:45:17;;;;;;;129.55;37.70;;;;;;;;;;8257975;28;20356;-73
2021/01/09 00:49:20;;;;;;;134.73;39.08;;;;;;;;;;8273991;28;20475;-73
2021/01/09 00:53:23;;;;;;;102.65;33.00;;;;;;;;;;8257651;28;20071;-73
2021/01/09 00:57:29;;;;;;;79.00;29.42;;;;;;;;;;8258070;28;20375;-73
2021/01/09 01:01:33;;;;;;;71.10;27.55;;;;;;;;;;8259267;28;20352;-73
2021/01/09 01:05:37;;;;;;;96.43;33.50;;;;;;;;;;8258719;28;20682;-73
2021/01/09 01:09:40;;;;;;;91.72;32.80;;;;;;;;;;8273317;28;20475;-73
2021/01/09 01:13:43;;;;;;;97.22;31.40;;;;;;;;;;8257430;28;20479;-73
2021/01/09 01:17:49;;;;;;;86.38;29.80;;;;;;;;;;8258114;28;20503;-73
2021/01/09 01:21:52;;;;;;;107.78;32.80;;;;;;;;;;8256008;28;20375;-73
2021/01/09 01:25:55;;;;;;;83.05;29.67;;;;;;;;;;8258195;28;20451;-73
2021/01/09 01:29:58;;;;;;;75.38;28.23;;;;;;;;;;8258114;28;20382;-73
2021/01/09 01:34:01;;;;;;;95.57;32.85;;;;;;;;;;8272922;28;20451;-73
2021/01/09 01:38:04;;;;;;;102.05;33.17;;;;;;;;;;8257690;28;20384;-73
2021/01/09 01:42:07;;;;;;;81.15;30.60;;;;;;;;;;8256031;28;20451;-73
2021/01/09 01:46:15;;;;;;;125.68;36.25;;;;;;;;;;8257716;28;20387;-73
2021/01/09 01:50:18;;;;;;;80.97;30.52;;;;;;;;;;8256482;28;20379;-73
2021/01/09 01:54:22;;;;;;;91.43;33.40;;;;;;;;;;8257137;28;20451;-74
2021/01/09 01:58:26;;;;;;;75.03;29.15;;;;;;;;;;8257059;28;20355;-72
2021/01/09 02:02:29;;;;;;;102.07;32.67;;;;;;;;;;8257245;28;20379;-73
2021/01/09 02:06:35;;;;;;;79.10;29.75;;;;;;;;;;8271989;28;20452;-74
2021/01/09 02:10:43;;;;;;;70.72;26.35;;;;;;;;;;8272130;28;20348;-75
2021/01/09 02:14:51;;;;;;;63.05;26.13;;;;;;;;;;8271506;28;20483;-74
2021/01/09 02:18:54;;;;;;;78.68;30.00;;;;;;;;;;8256831;28;20471;-75
2021/01/09 02:22:57;;;;;;;61.88;25.63;;;;;;;;;;8256625;28;20478;-75
2021/01/09 02:27:02;;;;;;;66.28;26.65;;;;;;;;;;8256848;28;20380;-74
2021/01/09 02:31:07;;;;;;;73.07;27.70;;;;;;;;;;8256715;28;20361;-75
2021/01/09 02:35:15;;;;;;;65.72;26.52;;;;;;;;;;8254947;28;20371;-76
2021/01/09 02:39:19;;;;;;;65.13;24.33;;;;;;;;;;8256421;28;20415;-74
2021/01/09 02:43:27;;;;;;;59.42;23.05;;;;;;;;;;8255274;28;20360;-75
2021/01/09 02:47:30;;;;;;;63.42;24.48;;;;;;;;;;8255232;28;20474;-74
2021/01/09 02:51:34;;;;;;;67.10;26.63;;;;;;;;;;8256106;28;20411;-74
2021/01/09 02:55:37;;;;;;;57.97;22.83;;;;;;;;;;8254785;28;20467;-74
2021/01/09 02:59:40;;;;;;;48.75;21.02;;;;;;;;;;8256540;28;20375;-75
2021/01/09 03:03:43;;;;;;;54.17;22.65;;;;;;;;;;8255863;28;20406;-75
2021/01/09 03:07:46;;;;;;;50.60;22.25;;;;;;;;;;8254198;28;20360;-75
2021/01/09 03:11:49;;;;;;;50.83;20.73;;;;;;;;;;8270873;28;20053;-75
2021/01/09 03:15:52;;;;;;;51.00;23.60;;;;;;;;;;8254496;28;20378;-75
2021/01/09 03:19:55;;;;;;;49.85;21.27;;;;;;;;;;8256066;28;20468;-75
2021/01/09 03:23:58;;;;;;;52.40;23.40;;;;;;;;;;8254657;28;20463;-75
2021/01/09 03:28:01;;;;;;;61.72;25.35;;;;;;;;;;8256147;28;20456;-74
2021/01/09 03:32:05;;;;;;;62.22;26.90;;;;;;;;;;8254332;28;20087;-75
2021/01/09 03:36:08;;;;;;;44.88;19.80;;;;;;;;;;8255683;28;20463;-74
2021/01/09 03:40:12;;;;;;;49.28;20.77;;;;;;;;;;8254037;28;20367;-75
2021/01/09 03:44:15;;;;;;;54.85;23.42;;;;;;;;;;8257892;28;20379;-75
2021/01/09 03:48:18;;;;;;;51.90;23.42;;;;;;;;;;8261530;28;20415;-74
2021/01/09 03:52:20;;;;;;;58.65;23.45;;;;;;;;;;8261569;28;20463;-74
2021/01/09 03:56:23;;;;;;;53.83;24.02;;;;;;;;;;8260861;28;20368;-75
2021/01/09 04:00:26;;;;;;;45.78;21.00;;;;;;;;;;8275324;28;20463;-74
2021/01/09 04:04:29;;;;;;;49.85;21.35;;;;;;;;;;8261356;28;20045;-75
2021/01/09 04:08:32;;;;;;;45.67;20.65;;;;;;;;;;8245607;28;20395;-75
2021/01/09 04:12:35;;;;;;;55.75;23.85;;;;;;;;;;8256675;28;20475;-75
2021/01/09 04:16:38;;;;;;;40.25;19.23;;;;;;;;;;8257928;28;20033;-76
2021/01/09 04:20:42;;;;;;;52.00;22.73;;;;;;;;;;8259427;28;20376;-75
2021/01/09 04:24:45;;;;;;;43.83;21.30;;;;;;;;;;8266015;28;20372;-74
2021/01/09 04:28:48;;;;;;;37.60;18.25;;;;;;;;;;8258641;28;20053;-76
2021/01/09 04:32:51;;;;;;;51.13;22.20;;;;;;;;;;8247118;28;20480;-74
2021/01/09 04:36:54;;;;;;;42.40;20.45;;;;;;;;;;8258060;28;20380;-75
2021/01/09 04:41:01;;;;;;;60.20;23.17;;;;;;;;;;8254741;28;20492;-75
2021/01/09 04:45:05;;;;;;;48.40;21.42;;;;;;;;;;8256640;28;20375;-74
2021/01/09 04:49:11;;;;;;;50.17;21.88;;;;;;;;;;8257537;28;20076;-74
2021/01/09 04:53:15;;;;;;;48.30;20.40;;;;;;;;;;8256966;28;20474;-74
2021/01/09 04:57:18;;;;;;;44.35;20.58;;;;;;;;;;8256893;28;20483;-75
2021/01/09 05:01:22;;;;;;;40.40;19.02;;;;;;;;;;8254779;28;20490;-74
2021/01/09 05:05:25;;;;;;;44.80;19.83;;;;;;;;;;8255849;28;20433;-75
2021/01/09 05:09:28;;;;;;;46.55;19.10;;;;;;;;;;8251930;28;20475;-75
2021/01/09 05:13:31;;;;;;;46.05;21.05;;;;;;;;;;8253819;28;20463;-75
2021/01/09 05:17:35;;;;;;;50.55;21.10;;;;;;;;;;8253416;28;20041;-74
2021/01/09 05:21:38;;;;;;;50.75;21.63;;;;;;;;;;8252107;28;20387;-75
2021/01/09 05:25:41;;;;;;;60.33;23.38;;;;;;;;;;8237350;28;20455;-75
2021/01/09 05:29:55;;;;;;;39.00;19.17;;;;;;;;;;8254028;28;20529;-74
2021/01/09 05:33:58;;;;;;;46.33;21.73;;;;;;;;;;8269285;28;20155;-74
2021/01/09 05:38:01;;;;;;;40.78;19.10;;;;;;;;;;8253261;28;20360;-75
2021/01/09 05:42:05;;;;;;;42.90;20.92;;;;;;;;;;8254801;28;20509;-74
2021/01/09 05:46:08;;;;;;;63.65;29.02;;;;;;;;;;8250959;28;20398;-76
2021/01/09 05:50:12;;;;;;;86.53;38.38;;;;;;;;;;8268804;28;20490;-76
2021/01/09 05:54:15;;;;;;;74.32;32.97;;;;;;;;;;8252031;28;20509;-75
2021/01/09 05:58:18;;;;;;;49.58;20.92;;;;;;;;;;8253277;28;20483;-74
2021/01/09 06:02:23;;;;;;;45.88;21.08;;;;;;;;;;8252080;28;20396;-75
2021/01/09 06:06:32;;;;;;;48.10;23.67;;;;;;;;;;8249602;28;20533;-75
2021/01/09 06:10:40;;;;;;;48.92;21.02;;;;;;;;;;8254081;28;20475;-74
2021/01/09 06:14:44;;;;;;;36.38;17.58;;;;;;;;;;8270307;28;20053;-75
2021/01/09 06:18:48;;;;;;;41.97;21.33;;;;;;;;;;8252773;28;20049;-75
2021/01/09 06:22:54;;;;;;;34.75;16.92;;;;;;;;;;8269186;28;20075;-75
2021/01/09 06:27:00;;;;;;;47.63;21.13;;;;;;;;;;8269168;28;20471;-75
2021/01/09 06:31:07;;;;;;;54.60;28.52;;;;;;;;;;8252752;28;20044;-74
2021/01/09 06:35:11;;;;;;;51.65;24.85;;;;;;;;;;8235715;28;20479;-75
2021/01/09 06:39:14;;;;;;;62.85;32.17;;;;;;;;;;8253806;28;20475;-76
2021/01/09 06:43:18;;;;;;;155.90;64.55;;;;;;;;;;8250965;28;20353;-75
2021/01/09 06:47:31;;;;;;;119.88;60.78;;;;;;;;;;8252081;28;20490;-74
2021/01/09 06:51:37;;;;;;;141.63;63.33;;;;;;;;;;8253864;28;20387;-75
2021/01/09 06:55:40;;;;;;;208.27;98.00;;;;;;;;;;8255844;28;20394;-74
2021/01/09 06:59:47;;;;;;;220.80;111.53;;;;;;;;;;8233764;28;20475;-74
2021/01/09 07:03:50;;;;;;;70.00;31.83;;;;;;;;;;8253380;28;20387;-75
2021/01/09 07:07:56;;;;;;;62.13;27.98;;;;;;;;;;8252039;28;20419;-77
2021/01/09 07:12:00;;;;;;;74.07;30.35;;;;;;;;;;8250075;28;20499;-74
2021/01/09 07:16:09;;;;;;;68.43;27.65;;;;;;;;;;8251059;28;20383;-76
2021/01/09 07:20:13;;;;;;;60.33;25.27;;;;;;;;;;8256860;28;20053;-75
2021/01/09 07:24:17;;;;;;;105.20;47.80;;;;;;;;;;8257592;28;20061;-75
2021/01/09 07:28:25;;;;;;;75.68;35.38;;;;;;;;;;8256673;28;20379;-75
2021/01/09 07:32:43;;;;;;;59.45;26.92;;;;;;;;;;8258537;28;20467;-75
2021/01/09 07:36:47;;;;;;;69.20;29.87;;;;;;;;;;8258171;28;20513;-74
2021/01/09 07:41:01;;;;;;;93.15;36.45;;;;;;;;;;8257207;28;20483;-75
2021/01/09 07:45:07;;;;;;;63.92;28.38;;;;;;;;;;8272911;28;20064;-74
2021/01/09 07:49:28;;;;;;;66.97;29.42;;;;;;;;;;8257543;28;20782;-76
2021/01/09 07:53:32;;;;;;;84.57;36.28;;;;;;;;;;8257309;28;20398;-75
2021/01/09 07:57:39;;;;;;;100.38;44.22;;;;;;;;;;8257719;28;20159;-76
2021/01/09 08:01:42;;;;;;;54.83;25.92;;;;;;;;;;8254093;28;20474;-75
2021/01/09 08:05:45;;;;;;;46.05;24.33;;;;;;;;;;8257224;28;20414;-75
2021/01/09 08:09:48;;;;;;;102.32;52.13;;;;;;;;;;8256931;28;20071;-74
2021/01/09 08:13:52;;;;;;;56.88;28.23;;;;;;;;;;8258140;28;20435;-75
2021/01/09 08:18:03;;;;;;;81.38;34.65;;;;;;;;;;8258907;28;20357;-75
2021/01/09 08:22:06;;;;;;;126.65;46.90;;;;;;;;;;8257338;28;20080;-75
2021/01/09 08:26:13;;;;;;;99.63;42.03;;;;;;;;;;8257173;28;20478;-75
2021/01/09 08:30:22;;;;;;;66.50;33.05;;;;;;;;;;8256777;28;20489;-75
2021/01/09 08:34:28;;;;;;;70.60;37.00;;;;;;;;;;8256956;28;20392;-74
2021/01/09 08:38:32;;;;;;;78.88;34.10;;;;;;;;;;8254584;28;20465;-74
2021/01/09 08:42:36;;;;;;;63.58;31.73;;;;;;;;;;8255478;28;20497;-76
2021/01/09 08:46:41;;;;;;;68.70;36.47;;;;;;;;;;8255717;28;20464;-75
2021/01/09 08:51:05;;;;;;;80.20;46.42;;;;;;;;;;8254287;28;20455;-75
2021/01/09 08:55:09;;;;;;;127.90;63.33;;;;;;;;;;8257113;28;20452;-75
2021/01/09 08:59:14;;;;;;;66.22;36.30;;;;;;;;;;8255102;28;20394;-75
2021/01/09 09:03:19;;;;;;;56.63;32.25;;;;;;;;;;8255986;28;20360;-75
2021/01/09 09:07:23;;;;;;;74.53;30.70;;;;;;;;;;8252492;28;20471;-76
2021/01/09 09:11:26;;;;;;;62.90;28.55;;;;;;;;;;8255624;28;20482;-76
2021/01/09 09:15:30;;;;;;;60.65;26.55;;;;;;;;;;8254776;28;20391;-74
2021/01/09 09:19:38;;;;;;;52.35;27.10;;;;;;;;;;8237399;28;20379;-74
2021/01/09 09:23:50;;;;;;;75.07;30.98;;;;;;;;;;8132148;28;20057;-74
2021/01/09 09:28:03;;;;;;;65.95;31.08;;;;;;;;;;8221559;28;20375;-74
2021/01/09 09:32:06;;;;;;;61.83;31.13;;;;;;;;;;8223266;28;20509;-75
2021/01/09 09:36:09;;;;;;;60.97;26.55;;;;;;;;;;8212446;28;20479;-74
2021/01/09 09:40:35;;;;;;;77.75;32.78;;;;;;;;;;8220570;28;20405;-73
2021/01/09 09:44:46;;;;;;;59.80;27.08;;;;;;;;;;8219987;28;20384;-74
2021/01/09 09:48:49;;;;;;;50.00;22.23;;;;;;;;;;8202567;28;20410;-73
2021/01/09 09:53:05;;;;;;;42.03;21.13;;;;;;;;;;8218897;28;20061;-73
2021/01/09 09:57:20;;;;;;;40.85;19.70;;;;;;;;;;8172440;28;20371;-74
2021/01/09 10:01:23;;;;;;;46.05;21.08;;;;;;;;;;8217575;28;20113;-73
2021/01/09 10:05:26;;;;;;;40.75;20.05;;;;;;;;;;8163649;28;20460;-73
2021/01/09 10:09:36;;;;;;;41.75;20.77;;;;;;;;;;8217975;28;20526;-73
2021/01/09 10:13:39;;;;;;;52.97;22.17;;;;;;;;;;8218605;28;20041;-73
2021/01/09 10:17:42;;;;;;;53.28;22.02;;;;;;;;;;8202114;28;20402;-74
2021/01/09 10:21:46;;;;;;;66.35;24.88;;;;;;;;;;8065272;28;20408;-74
2021/01/09 10:25:49;;;;;;;62.83;36.50;;;;;;;;;;8202048;28;20472;-73
2021/01/09 10:29:52;;;;;;;147.10;40.20;;;;;;;;;;8141125;28;20068;-75
2021/01/09 10:33:56;;;;;;;50.42;23.45;;;;;;;;;;8221772;28;20057;-74
2021/01/09 10:37:59;;;;;;;56.30;22.45;;;;;;;;;;8219439;28;20365;-73
2021/01/09 10:42:03;;;;;;;76.57;30.17;;;;;;;;;;8221778;28;20376;-73
2021/01/09 10:46:05;;;;;;;59.67;26.33;;;;;;;;;;8221445;28;20111;-73
2021/01/09 10:50:10;;;;;;;69.78;28.52;;;;;;;;;;8219788;28;20457;-74
2021/01/09 10:54:13;;;;;;;58.40;26.67;;;;;;;;;;8225433;28;20488;-74
2021/01/09 10:58:16;;;;;;;63.35;28.23;;;;;;;;;;8191161;28;20350;-74
2021/01/09 11:02:18;;;;;;;58.53;25.85;;;;;;;;;;8171116;28;20413;-75
2021/01/09 11:06:23;;;;;;;60.33;26.17;;;;;;;;;;8172377;28;20042;-73
2021/01/09 11:10:26;;;;;;;75.88;27.38;;;;;;;;;;8174577;28;20472;-74
2021/01/09 11:14:40;;;;;;;68.57;25.80;;;;;;;;;;8157675;28;20054;-76
2021/01/09 11:18:43;;;;;;;57.47;23.42;;;;;;;;;;8160426;28;20109;-73
2021/01/09 11:22:46;;;;;;;58.08;24.42;;;;;;;;;;8082185;29;20462;-73
2021/01/09 11:26:49;;;;;;;56.17;25.90;;;;;;;;;;8085799;28;20478;-73
2021/01/09 11:30:52;;;;;;;49.70;23.65;;;;;;;;;;8144509;28;20489;-75
2021/01/09 11:34:55;;;;;;;62.30;28.02;;;;;;;;;;8159830;28;20473;-72
2021/01/09 11:38:58;;;;;;;75.68;32.05;;;;;;;;;;8144828;28;20042;-73
2021/01/09 11:43:02;;;;;;;149.75;65.15;;;;;;;;;;8159842;28;20623;-75
2021/01/09 11:47:06;;;;;;;54.00;24.08;;;;;;;;;;8159881;28;20362;-73
2021/01/09 11:51:10;;;;;;;73.15;29.67;;;;;;;;;;8144916;28;20363;-73
2021/01/09 11:55:13;;;;;;;59.65;25.00;;;;;;;;;;8196617;28;20453;-73
2021/01/09 11:59:16;;;;;;;62.83;24.80;;;;;;;;;;8194319;28;20071;-73
2021/01/09 12:03:20;;;;;;;49.53;21.63;;;;;;;;;;8195532;28;20518;-73
2021/01/09 12:07:23;;;;;;;72.03;30.58;;;;;;;;;;8191287;28;20294;-74
2021/01/09 12:11:26;;;;;;;92.40;42.38;;;;;;;;;;8191575;28;20409;-74
2021/01/09 12:15:30;;;;;;;65.68;30.27;;;;;;;;;;8191568;28;20476;-73
2021/01/09 12:19:34;;;;;;;88.45;39.03;;;;;;;;;;8138030;28;20428;-74
2021/01/09 12:23:39;;;;;;;52.22;24.45;;;;;;;;;;8190899;28;20046;-74
2021/01/09 12:27:42;;;;;;;97.07;36.67;;;;;;;;;;8190641;28;20072;-74
2021/01/09 12:31:45;;;;;;;141.50;51.03;;;;;;;;;;8146628;28;20506;-74
2021/01/09 12:35:51;;;;;;;86.82;34.25;;;;;;;;;;8223112;28;20386;-74
2021/01/09 12:39:54;;;;;;;68.00;28.77;;;;;;;;;;8241865;28;20462;-74
2021/01/09 12:43:57;;;;;;;85.78;34.47;;;;;;;;;;8241771;28;20071;-74
2021/01/09 12:48:01;;;;;;;33.78;16.98;;;;;;;;;;8225589;28;20387;-73
2021/01/09 12:52:08;;;;;;;31.52;15.68;;;;;;;;;;8226377;28;20353;-74
2021/01/09 12:56:14;;;;;;;64.68;31.40;;;;;;;;;;8226452;28;20581;-73
2021/01/09 13:00:18;;;;;;;48.05;23.33;;;;;;;;;;8240597;28;20494;-74
2021/01/09 13:04:21;;;;;;;97.38;46.20;;;;;;;;;;8226383;28;20460;-73
2021/01/09 13:08:24;;;;;;;51.67;23.58;;;;;;;;;;8241425;28;20365;-73
2021/01/09 13:12:29;;;;;;;31.10;15.38;;;;;;;;;;8224999;28;20084;-73
2021/01/09 13:16:32;;;;;;;59.50;28.60;;;;;;;;;;8221591;28;20490;-73
2021/01/09 13:20:40;;;;;;;41.35;21.02;;;;;;;;;;8204767;28;20583;-72
2021/01/09 13:24:50;;;;;;;81.00;27.88;;;;;;;;;;8221804;28;20387;-73
2021/01/09 13:28:55;;;;;;;42.95;18.92;;;;;;;;;;8205906;28;20468;-75
2021/01/09 13:32:58;;;;;;;23.77;11.85;;;;;;;;;;8221785;28;20045;-73
2021/01/09 13:37:07;;;;;;;24.15;12.98;;;;;;;;;;8221681;28;20384;-73
2021/01/09 13:41:10;;;;;;;43.35;19.02;;;;;;;;;;8221762;28;20391;-72
2021/01/09 13:45:14;;;;;;;22.25;10.20;;;;;;;;;;8221181;28;20475;-73
2021/01/09 13:49:17;;;;;;;41.20;17.00;;;;;;;;;;8224758;28;20046;-73
2021/01/09 13:53:20;;;;;;;37.80;15.43;;;;;;;;;;8224790;28;20468;-73
2021/01/09 13:57:23;;;;;;;48.20;18.90;;;;;;;;;;8224256;28;20460;-73
2021/01/09 14:01:27;;;;;;;29.20;13.43;;;;;;;;;;8225051;28;20057;-72
2021/01/09 14:05:30;;;;;;;29.58;15.02;;;;;;;;;;8224160;28;20477;-73
2021/01/09 14:09:33;;;;;;;25.20;10.35;;;;;;;;;;8239680;28;20475;-73
2021/01/09 14:13:36;;;;;;;15.35;8.55;;;;;;;;;;8238857;28;20064;-73
2021/01/09 14:17:57;;;;;;;14.20;7.25;;;;;;;;;;8223817;28;20494;-73
2021/01/09 14:22:01;;;;;;;14.45;7.10;;;;;;;;;;8224476;28;20388;-72
2021/01/09 14:26:04;;;;;;;16.23;9.18;;;;;;;;;;8222709;28;20407;-73
2021/01/09 14:30:07;;;;;;;19.65;13.95;;;;;;;;;;8239483;28;20525;-73
2021/01/09 14:34:11;;;;;;;23.85;13.02;;;;;;;;;;8224170;28;20107;-73
2021/01/09 14:38:18;;;;;;;13.07;7.50;;;;;;;;;;8191790;28;20533;-73
2021/01/09 14:42:23;;;;;;;32.95;15.52;;;;;;;;;;8223270;28;20373;-73
2021/01/09 14:46:26;;;;;;;25.70;13.38;;;;;;;;;;8224642;28;20049;-73
2021/01/09 14:50:30;;;;;;;16.83;10.13;;;;;;;;;;8222127;28;20354;-73
2021/01/09 14:54:34;;;;;;;46.53;19.50;;;;;;;;;;8223807;28;20046;-74
2021/01/09 14:58:40;;;;;;;25.40;13.05;;;;;;;;;;8238452;28;20411;-73
2021/01/09 15:02:46;;;;;;;24.88;10.70;;;;;;;;;;8238821;28;20367;-74
2021/01/09 15:06:50;;;;;;;25.23;12.32;;;;;;;;;;8223432;28;20379;-74
2021/01/09 15:10:53;;;;;;;52.22;20.42;;;;;;;;;;8238782;28;20072;-74
2021/01/09 15:14:57;;;;;;;30.40;14.30;;;;;;;;;;8223325;28;20560;-74
2021/01/09 15:19:12;;;;;;;24.42;10.63;;;;;;;;;;8231049;28;20387;-74
2021/01/09 15:23:15;;;;;;;40.85;12.77;;;;;;;;;;8233216;28;20401;-74
2021/01/09 15:27:17;;;;;;;22.05;9.68;;;;;;;;;;8262131;28;20456;-75
2021/01/09 15:31:21;;;;;;;21.13;8.90;;;;;;;;;;8251657;28;20455;-75
2021/01/09 15:35:24;;;;;;;37.67;14.00;;;;;;;;;;8251412;28;20418;-74
2021/01/09 15:39:27;;;;;;;112.70;32.63;;;;;;;;;;8255574;28;20460;-74
2021/01/09 15:43:30;;;;;;;191.65;50.70;;;;;;;;;;8259680;28;20498;-74
2021/01/09 15:47:33;;;;;;;111.90;37.95;;;;;;;;;;8257433;28;20483;-75
2021/01/09 15:51:40;;;;;;;24.85;11.77;;;;;;;;;;8255623;28;20479;-74
2021/01/09 15:55:43;;;;;;;19.67;10.20;;;;;;;;;;8272366;28;20056;-75
2021/01/09 15:59:46;;;;;;;27.33;12.73;;;;;;;;;;8258404;28;20360;-74
2021/01/09 16:03:49;;;;;;;22.13;10.50;;;;;;;;;;8257749;28;20044;-75
2021/01/09 16:07:52;;;;;;;46.75;22.35;;;;;;;;;;8272028;28;20379;-74
2021/01/09 16:12:02;;;;;;;34.40;14.68;;;;;;;;;;8258697;28;20419;-75
2021/01/09 16:16:12;;;;;;;25.58;11.73;;;;;;;;;;8260081;28;20383;-75
2021/01/09 16:20:18;;;;;;;26.13;11.55;;;;;;;;;;8222759;28;20075;-75
2021/01/09 16:24:21;;;;;;;36.38;16.02;;;;;;;;;;8256899;28;20478;-74
2021/01/09 16:28:26;;;;;;;41.08;15.55;;;;;;;;;;8255593;28;20376;-73
2021/01/09 16:32:30;;;;;;;39.83;16.70;;;;;;;;;;8257799;28;20471;-73
2021/01/09 16:36:34;;;;;;;26.50;12.20;;;;;;;;;;8258928;28;20475;-74
2021/01/09 16:40:37;;;;;;;32.38;12.68;;;;;;;;;;8272523;28;20483;-74
2021/01/09 16:44:39;;;;;;;43.53;15.23;;;;;;;;;;8255877;28;20459;-74
2021/01/09 16:48:43;;;;;;;35.83;15.00;;;;;;;;;;8255476;28;20376;-74
2021/01/09 16:52:47;;;;;;;48.72;17.35;;;;;;;;;;8255753;28;20463;-75
2021/01/09 16:56:51;;;;;;;34.58;13.40;;;;;;;;;;8241029;28;20414;-74
2021/01/09 17:00:55;;;;;;;96.22;31.63;;;;;;;;;;8258628;28;20497;-74
2021/01/09 17:04:58;;;;;;;121.32;40.35;;;;;;;;;;8255107;28;20364;-74
2021/01/09 17:09:02;;;;;;;67.88;25.30;;;;;;;;;;8235028;28;20053;-75
2021/01/09 17:13:05;;;;;;;57.10;21.58;;;;;;;;;;8185933;28;20372;-75
2021/01/09 17:17:08;;;;;;;141.93;43.50;;;;;;;;;;8253254;28;20375;-74
2021/01/09 17:21:13;;;;;;;143.13;44.00;;;;;;;;;;8254531;28;20373;-74
2021/01/09 17:25:16;;;;;;;115.95;44.25;;;;;;;;;;8254248;28;20057;-74
2021/01/09 17:29:19;;;;;;;198.65;59.28;;;;;;;;;;8251946;28;20049;-74
2021/01/09 17:33:22;;;;;;;124.18;43.85;;;;;;;;;;8251276;28;20387;-75
2021/01/09 17:37:26;;;;;;;126.05;70.70;;;;;;;;;;8253801;28;20490;-76
2021/01/09 17:41:35;;;;;;;167.40;98.28;;;;;;;;;;8249909;28;20383;-74
2021/01/09 17:45:38;;;;;;;127.03;70.65;;;;;;;;;;8219437;28;20364;-74
2021/01/09 17:49:44;;;;;;;48.00;20.67;;;;;;;;;;8218680;28;20369;-74
2021/01/09 17:53:47;;;;;;;95.35;46.58;;;;;;;;;;8219775;28;20480;-74
2021/01/09 17:57:51;;;;;;;40.78;15.00;;;;;;;;;;8217797;28;20071;-74
2021/01/09 18:02:14;;;;;;;56.95;21.17;;;;;;;;;;8218976;28;20488;-74
2021/01/09 18:06:18;;;;;;;68.07;25.90;;;;;;;;;;8219192;28;20487;-74
2021/01/09 18:10:23;;;;;;;57.10;20.13;;;;;;;;;;8217781;28;20378;-74
2021/01/09 18:14:26;;;;;;;93.20;38.63;;;;;;;;;;8222859;28;20075;-74
2021/01/09 18:18:34;;;;;;;159.55;59.47;;;;;;;;;;8254709;28;20071;-74
2021/01/09 18:22:42;;;;;;;119.60;53.45;;;;;;;;;;8252189;28;20114;-74
2021/01/09 18:27:20;;;;;;;89.90;37.55;;;;;;;;;;8202851;28;20063;-74
2021/01/09 18:31:30;;;;;;;70.50;25.23;;;;;;;;;;8252031;28;20386;-74
2021/01/09 18:35:34;;;;;;;83.72;38.78;;;;;;;;;;8250427;28;20859;-75
2021/01/09 18:39:42;;;;;;;81.18;34.30;;;;;;;;;;8253455;28;20499;-75
2021/01/09 18:43:46;;;;;;;68.63;31.20;;;;;;;;;;8251979;28;20593;-73
2021/01/09 18:47:56;;;;;;;66.35;23.23;;;;;;;;;;8250950;28;20126;-75
2021/01/09 18:52:14;;;;;;;65.93;24.73;;;;;;;;;;8251679;28;20498;-76
2021/01/09 18:56:45;;;;;;;68.88;25.38;;;;;;;;;;8250482;28;20476;-73
2021/01/09 19:00:49;;;;;;;68.75;23.23;;;;;;;;;;8235014;28;20053;-73
2021/01/09 19:04:52;;;;;;;74.57;23.92;;;;;;;;;;8249040;28;20360;-75
2021/01/09 19:09:24;;;;;;;82.13;23.60;;;;;;;;;;8237075;28;20463;-74
2021/01/09 19:13:34;;;;;;;122.07;39.33;;;;;;;;;;8251155;28;20470;-74
2021/01/09 19:18:01;;;;;;;73.38;29.17;;;;;;;;;;8256595;28;20482;-75
2021/01/09 19:22:25;;;;;;;65.07;26.55;;;;;;;;;;8257344;28;20491;-74
2021/01/09 19:26:31;;;;;;;64.95;25.40;;;;;;;;;;8257400;28;20644;-76
2021/01/09 19:30:45;;;;;;;60.03;20.33;;;;;;;;;;8255403;28;20498;-74
2021/01/09 19:34:49;;;;;;;53.20;21.48;;;;;;;;;;8256669;28;20344;-74
2021/01/09 19:38:58;;;;;;;40.72;16.80;;;;;;;;;;8253190;28;20472;-74
2021/01/09 19:43:04;;;;;;;38.75;15.95;;;;;;;;;;8253801;28;20467;-76
2021/01/09 19:47:21;;;;;;;36.58;15.52;;;;;;;;;;8235008;28;20471;-77
2021/01/09 19:51:27;;;;;;;41.00;18.52;;;;;;;;;;8239518;28;20075;-74
2021/01/09 19:55:36;;;;;;;53.63;20.27;;;;;;;;;;8255815;28;20481;-76
2021/01/09 19:59:44;;;;;;;64.93;22.63;;;;;;;;;;8254458;28;20075;-74
2021/01/09 20:03:49;;;;;;;65.05;22.38;;;;;;;;;;8255086;28;20460;-74
2021/01/09 20:07:56;;;;;;;51.13;20.58;;;;;;;;;;8271840;28;20497;-74
2021/01/09 20:12:00;;;;;;;66.90;24.70;;;;;;;;;;8254596;28;20075;-74
2021/01/09 20:16:24;;;;;;;69.68;24.30;;;;;;;;;;8255242;28;20041;-74
2021/01/09 20:20:35;;;;;;;54.40;20.83;;;;;;;;;;8270042;28;20573;-75
2021/01/09 20:24:39;;;;;;;53.20;20.92;;;;;;;;;;8254785;28;20448;-74
2021/01/09 20:28:43;;;;;;;54.85;22.05;;;;;;;;;;8271367;28;20057;-74
2021/01/09 20:32:46;;;;;;;48.80;20.42;;;;;;;;;;8253418;28;20633;-75
2021/01/09 20:36:49;;;;;;;52.10;21.80;;;;;;;;;;8255715;28;20049;-74
2021/01/09 20:40:54;;;;;;;73.00;25.33;;;;;;;;;;8253789;28;20363;-75
2021/01/09 20:45:10;;;;;;;78.00;26.23;;;;;;;;;;8238713;28;20379;-74
2021/01/09 20:49:13;;;;;;;108.75;36.97;;;;;;;;;;8253659;28;20052;-74
2021/01/09 20:53:17;;;;;;;127.25;39.33;;;;;;;;;;8254617;28;20368;-74
2021/01/09 20:57:20;;;;;;;122.85;40.88;;;;;;;;;;8253309;28;20474;-74
2021/01/09 21:01:25;;;;;;;124.80;41.65;;;;;;;;;;8254072;28;20379;-74
2021/01/09 21:05:46;;;;;;;121.65;42.20;;;;;;;;;;8251537;28;20357;-74
2021/01/09 21:09:49;;;;;;;127.95;44.22;;;;;;;;;;8252051;28;20494;-74
2021/01/09 21:13:52;;;;;;;118.03;42.15;;;;;;;;;;8252494;28;20081;-75
2021/01/09 21:17:55;;;;;;;97.78;35.35;;;;;;;;;;8253084;28;20479;-74
2021/01/09 21:21:58;;;;;;;130.07;43.80;;;;;;;;;;8250323;28;20460;-76
2021/01/09 21:26:02;;;;;;;178.73;54.25;;;;;;;;;;8242115;28;20071;-75
2021/01/09 21:30:07;;;;;;;154.88;52.00;;;;;;;;;;8252925;28;20463;-74
2021/01/09 21:34:10;;;;;;;148.40;49.38;;;;;;;;;;8251578;28;20061;-74
2021/01/09 21:38:14;;;;;;;124.00;40.95;;;;;;;;;;8251915;28;20044;-74
2021/01/09 21:42:17;;;;;;;100.15;35.72;;;;;;;;;;8252675;28;20382;-75
2021/01/09 21:46:20;;;;;;;100.80;34.65;;;;;;;;;;8256185;28;20478;-74
2021/01/09 21:50:27;;;;;;;103.78;33.88;;;;;;;;;;8256215;28;20380;-74
2021/01/09 21:54:30;;;;;;;97.85;32.63;;;;;;;;;;8255828;28;20478;-74
2021/01/09 21:58:33;;;;;;;100.75;34.40;;;;;;;;;;8258096;28;20367;-75
2021/01/09 22:02:38;;;;;;;87.45;30.17;;;;;;;;;;8272282;28;20471;-74
2021/01/09 22:06:41;;;;;;;270.95;60.50;;;;;;;;;;8257956;28;20376;-74
2021/01/09 22:10:45;;;;;;;143.93;39.95;;;;;;;;;;8257697;28;20485;-74
2021/01/09 22:14:47;;;;;;;68.43;24.10;;;;;;;;;;8257314;28;20475;-74
2021/01/09 22:18:52;;;;;;;80.35;27.05;;;;;;;;;;8256465;28;20387;-74
2021/01/09 22:22:55;;;;;;;81.43;25.10;;;;;;;;;;8257575;28;20252;-74
2021/01/09 22:26:59;;;;;;;81.00;25.52;;;;;;;;;;8257277;28;20464;-73
2021/01/09 22:31:02;;;;;;;76.07;24.83;;;;;;;;;;8272114;28;20049;-74
2021/01/09 22:35:07;;;;;;;86.43;25.10;;;;;;;;;;8257358;28;20386;-74
2021/01/09 22:39:10;;;;;;;82.47;24.45;;;;;;;;;;8256640;28;20375;-73
2021/01/09 22:43:13;;;;;;;71.05;24.55;;;;;;;;;;8256534;28;20578;-74
2021/01/09 22:47:16;;;;;;;80.30;25.83;;;;;;;;;;8256666;28;20475;-74
2021/01/09 22:51:20;;;;;;;64.35;20.75;;;;;;;;;;8262922;28;20390;-74
2021/01/09 22:55:23;;;;;;;52.53;19.40;;;;;;;;;;8263509;28;20367;-74
2021/01/09 22:59:28;;;;;;;48.95;17.92;;;;;;;;;;8263704;28;20387;-73
2021/01/09 23:03:31;;;;;;;48.95;17.90;;;;;;;;;;8261877;28;20401;-73
2021/01/09 23:07:34;;;;;;;61.38;18.42;;;;;;;;;;8260997;28;20472;-74
2021/01/09 23:11:37;;;;;;;52.75;19.38;;;;;;;;;;8245056;28;20514;-74
2021/01/09 23:15:41;;;;;;;55.88;19.35;;;;;;;;;;8260706;28;20447;-73
2021/01/09 23:19:44;;;;;;;54.22;18.27;;;;;;;;;;8262942;28;20674;-74
2021/01/09 23:23:51;;;;;;;68.28;22.77;;;;;;;;;;8262178;28;20475;-74
2021/01/09 23:27:57;;;;;;;67.45;21.98;;;;;;;;;;8262515;28;20506;-74
2021/01/09 23:32:00;;;;;;;47.70;17.58;;;;;;;;;;8262314;28;20360;-73
2021/01/09 23:36:03;;;;;;;38.38;13.43;;;;;;;;;;8262201;28;20391;-74
2021/01/09 23:40:10;;;;;;;42.42;14.55;;;;;;;;;;8261722;28;20475;-73
2021/01/09 23:44:14;;;;;;;42.17;16.13;;;;;;;;;;8261673;28;20376;-74